Terminal Aerodrome Forecast
Issued by NWS

Home | Current Version | Previous Version | Graphics & Text | Print | Product List | Glossary On
Versions: 1 2 3 4 5 6 7 8 9 10 11 12 13 14 15 16
000
FTUS43 KOAX 161120
TAFCDR
TAF
KCDR 161120Z 1612/1712 20012KT P6SM SCT250
     FM161700 25015G23KT P6SM BKN200
     FM170000 23010KT P6SM BKN150=

USA.gov is the U.S. government's official web portal to all federal, state and local government web resources and services.